Estación Meteorológica Peña el Pijo (Robertgarden) [ 12/09/19 16:25:53 CET ]

Fecha Hora Presion(HPa) Temp (°C) Humedad % Rocio (°C) Viento ( m/s) Direccion Lluvia 1Hora(mm) Lluvia 24H(mm) LLuvia Total(mm)
2019-Aug-31 01:01:44 1013.500 16.6 76 12.3         385.10
2019-Aug-31 02:02:01 1013.900 15.4 80 12.0         385.10
2019-Aug-31 03:01:46 1012.700 14.9 82 11.9         385.10
2019-Aug-31 04:01:41 1011.900 14.6 83 11.7         385.10
2019-Aug-31 05:03:12 1011.800 14.0 83 11.1         385.10
2019-Aug-31 06:01:34 1011.800 13.8 84 11.1         385.10
2019-Aug-31 07:02:01 1011.900 13.2 85 10.7         385.10
2019-Aug-31 08:01:49 1012.000 12.8 85 10.3         385.10
2019-Aug-31 09:02:00 1012.300 15.4 84 12.7         385.10
2019-Aug-31 10:01:49 1012.100 20.8 69 14.9         385.10
2019-Aug-31 11:01:53 1012.000 25.4 52 14.8         385.10
2019-Aug-31 12:01:51 1012.000 28.4 38 12.7         385.10
2019-Aug-31 13:01:49 1011.500 31.5 32 12.7         385.10
2019-Aug-31 14:01:59 1011.200 32.8 26 10.6         385.10
2019-Aug-31 15:01:49 1010.800 34.1 24 11.0         385.10
2019-Aug-31 16:01:49 1010.000 33.8 27 12.0         385.10
2019-Aug-31 17:01:48 1009.600 32.6 27 11.0         385.10
2019-Aug-31 18:01:22 1009.400 31.0 28 10.2         385.10
2019-Aug-31 19:01:35 1009.800 28.1 39 12.8         385.10
2019-Aug-31 20:02:07 1010.300 24.9 48 13.1         385.10
2019-Aug-31 21:01:37 1010.500 22.2 55 12.7         385.10
2019-Aug-31 22:01:41 1011.300 19.8 62 12.3         385.10
2019-Aug-31 23:01:52 1011.600 18.2 67 12.0         385.10

Temperatura Máxima:34°    Temperatura Mínima:12°
Presión Máxima:1013.900 Hpa    Presión Mínima:1009.400 Hpa


Volver